Terminal Aerodrome Forecast
Issued by NWS

Home | Current Version | Previous Version | Text Only | Print | Product List | Glossary On
Versions: 1 2 3 4 5 6 7 8 9 10 11 12 13 14
513
FTUS42 TJSJ 060526
TAFIST
TAF
TIST 060526Z 0606/0706 12012KT P6SM VCSH SCT020 BKN040
     FM061330 14015KT P6SM SCT025 SCT050
     FM062330 13010KT P6SM SCT020=

USA.gov is the U.S. government's official web portal to all federal, state and local government web resources and services.